Terminal Aerodrome Forecast
Issued by NWS

Home | Current Version | Previous Version | Text Only | Print | Product List | Glossary On
Versions: 1 2 3 4 5 6 7 8 9 10 11 12 13 14
000
FTUS43 KIND 230521
TAFBMG
TAF
KBMG 230521Z 2306/2406 13005KT P6SM VCSH OVC060
     FM230700 12005KT P6SM SHRA OVC070
     FM231200 09006KT 4SM SHRA OVC030
     FM231500 29006KT 5SM SHRA OVC015
     FM232100 31009KT P6SM VCSH OVC015
     FM232300 31007KT P6SM BKN060
      AMD LTD TO CLD VIS AND WIND TIL 231300=

USA.gov is the U.S. government's official web portal to all federal, state and local government web resources and services.